sensor_id;sensor_type;location;lat;lon;timestamp;noise_LAeq;noise_LA_min;noise_LA_max;noise_LA01;noise_LA95
70740;Laerm;58330;51.888;11.052;2024-02-26T00:00:06;5.00;5.00;5.00;;
70740;Laerm;58330;51.888;11.052;2024-02-26T00:02:34;5.00;5.00;5.00;;
70740;Laerm;58330;51.888;11.052;2024-02-26T00:05:03;5.00;5.00;5.00;;
70740;Laerm;58330;51.888;11.052;2024-02-26T00:07:29;5.00;5.00;5.00;;
70740;Laerm;58330;51.888;11.052;2024-02-26T00:09:56;5.00;5.00;5.00;;
70740;Laerm;58330;51.888;11.052;2024-02-26T00:12:22;5.00;5.00;5.00;;
70740;Laerm;58330;51.888;11.052;2024-02-26T00:14:49;5.00;5.00;5.00;;
70740;Laerm;58330;51.888;11.052;2024-02-26T00:17:17;5.00;5.00;5.00;;
70740;Laerm;58330;51.888;11.052;2024-02-26T00:19:43;5.00;5.00;5.00;;
70740;Laerm;58330;51.888;11.052;2024-02-26T00:22:10;5.00;5.00;5.00;;
70740;Laerm;58330;51.888;11.052;2024-02-26T00:24:36;5.00;5.00;5.00;;
70740;Laerm;58330;51.888;11.052;2024-02-26T00:27:02;5.00;5.00;5.00;;
70740;Laerm;58330;51.888;11.052;2024-02-26T00:29:29;5.00;5.00;5.00;;
70740;Laerm;58330;51.888;11.052;2024-02-26T00:31:55;5.00;5.00;5.00;;
70740;Laerm;58330;51.888;11.052;2024-02-26T00:34:23;5.00;5.00;5.00;;
70740;Laerm;58330;51.888;11.052;2024-02-26T00:36:50;5.00;5.00;5.00;;
70740;Laerm;58330;51.888;11.052;2024-02-26T00:39:16;5.00;5.00;5.00;;
70740;Laerm;58330;51.888;11.052;2024-02-26T00:41:43;5.00;5.00;5.00;;
70740;Laerm;58330;51.888;11.052;2024-02-26T00:44:09;5.00;5.00;5.00;;
70740;Laerm;58330;51.888;11.052;2024-02-26T00:46:36;82.36;-326.54;99.23;;
70740;Laerm;58330;51.888;11.052;2024-02-26T00:49:03;90.22;-58.06;99.23;;
70740;Laerm;58330;51.888;11.052;2024-02-26T00:51:31;64.75;-334.33;96.22;;
70740;Laerm;58330;51.888;11.052;2024-02-26T00:53:59;5.00;5.00;5.00;;
70740;Laerm;58330;51.888;11.052;2024-02-26T00:56:26;5.00;5.00;5.00;;
70740;Laerm;58330;51.888;11.052;2024-02-26T00:58:52;14.34;-323.53;47.07;;
70740;Laerm;58330;51.888;11.052;2024-02-26T01:01:19;37.37;-326.54;56.21;;
70740;Laerm;58330;51.888;11.052;2024-02-26T01:03:45;47.72;-73.86;58.52;;
70740;Laerm;58330;51.888;11.052;2024-02-26T01:06:12;51.12;-47.29;60.09;;
70740;Laerm;58330;51.888;11.052;2024-02-26T01:08:40;57.75;-7.62;67.63;;
70740;Laerm;58330;51.888;11.052;2024-02-26T01:11:06;61.08;54.93;68.27;;
70740;Laerm;58330;51.888;11.052;2024-02-26T01:13:33;52.19;-324.78;68.26;;
70740;Laerm;58330;51.888;11.052;2024-02-26T01:15:59;5.00;5.00;5.00;;
70740;Laerm;58330;51.888;11.052;2024-02-26T01:18:26;5.00;5.00;5.00;;
70740;Laerm;58330;51.888;11.052;2024-02-26T01:20:53;5.00;5.00;5.00;;
70740;Laerm;58330;51.888;11.052;2024-02-26T01:23:20;5.00;5.00;5.00;;
70740;Laerm;58330;51.888;11.052;2024-02-26T01:25:47;60.37;-328.31;96.18;;
70740;Laerm;58330;51.888;11.052;2024-02-26T01:28:14;5.00;5.00;5.00;;
70740;Laerm;58330;51.888;11.052;2024-02-26T01:30:41;5.00;5.00;5.00;;
70740;Laerm;58330;51.888;11.052;2024-02-26T01:33:07;5.00;5.00;5.00;;
70740;Laerm;58330;51.888;11.052;2024-02-26T01:35:34;5.00;5.00;5.00;;
70740;Laerm;58330;51.888;11.052;2024-02-26T01:38:00;5.00;5.00;5.00;;
70740;Laerm;58330;51.888;11.052;2024-02-26T01:40:26;5.00;5.00;5.00;;
70740;Laerm;58330;51.888;11.052;2024-02-26T01:42:54;5.00;5.00;5.00;;
70740;Laerm;58330;51.888;11.052;2024-02-26T01:45:21;5.00;5.00;5.00;;
70740;Laerm;58330;51.888;11.052;2024-02-26T01:47:49;5.00;5.00;5.00;;
70740;Laerm;58330;51.888;11.052;2024-02-26T01:50:16;5.00;5.00;5.00;;
70740;Laerm;58330;51.888;11.052;2024-02-26T01:52:43;5.00;5.00;5.00;;
70740;Laerm;58330;51.888;11.052;2024-02-26T01:55:09;5.00;5.00;5.00;;
70740;Laerm;58330;51.888;11.052;2024-02-26T01:57:36;5.00;5.00;5.00;;
70740;Laerm;58330;51.888;11.052;2024-02-26T02:00:06;5.00;5.00;5.00;;
70740;Laerm;58330;51.888;11.052;2024-02-26T02:02:33;5.00;5.00;5.00;;
70740;Laerm;58330;51.888;11.052;2024-02-26T02:05:00;5.00;5.00;5.00;;
70740;Laerm;58330;51.888;11.052;2024-02-26T02:07:27;5.00;5.00;5.00;;
70740;Laerm;58330;51.888;11.052;2024-02-26T02:09:53;5.00;5.00;5.00;;
70740;Laerm;58330;51.888;11.052;2024-02-26T02:12:20;5.00;5.00;5.00;;
70740;Laerm;58330;51.888;11.052;2024-02-26T02:14:47;5.00;5.00;5.00;;
70740;Laerm;58330;51.888;11.052;2024-02-26T02:17:15;5.00;5.00;5.00;;
70740;Laerm;58330;51.888;11.052;2024-02-26T02:19:42;5.00;5.00;5.00;;
70740;Laerm;58330;51.888;11.052;2024-02-26T02:22:10;5.00;5.00;5.00;;
70740;Laerm;58330;51.888;11.052;2024-02-26T02:24:36;5.00;5.00;5.00;;
70740;Laerm;58330;51.888;11.052;2024-02-26T02:27:03;5.00;5.00;5.00;;
70740;Laerm;58330;51.888;11.052;2024-02-26T02:29:29;5.00;5.00;5.00;;
70740;Laerm;58330;51.888;11.052;2024-02-26T02:31:56;5.00;5.00;5.00;;
70740;Laerm;58330;51.888;11.052;2024-02-26T02:34:23;5.00;5.00;5.00;;
70740;Laerm;58330;51.888;11.052;2024-02-26T02:36:51;5.00;5.00;5.00;;
70740;Laerm;58330;51.888;11.052;2024-02-26T02:39:19;5.00;5.00;5.00;;
70740;Laerm;58330;51.888;11.052;2024-02-26T02:41:46;5.00;5.00;5.00;;
70740;Laerm;58330;51.888;11.052;2024-02-26T02:44:12;5.00;5.00;5.00;;
70740;Laerm;58330;51.888;11.052;2024-02-26T02:46:39;5.00;5.00;5.00;;
70740;Laerm;58330;51.888;11.052;2024-02-26T02:49:07;5.00;5.00;5.00;;
70740;Laerm;58330;51.888;11.052;2024-02-26T02:51:34;5.00;5.00;5.00;;
70740;Laerm;58330;51.888;11.052;2024-02-26T02:54:00;5.00;5.00;5.00;;
70740;Laerm;58330;51.888;11.052;2024-02-26T02:56:29;5.00;5.00;5.00;;
70740;Laerm;58330;51.888;11.052;2024-02-26T02:58:55;5.00;5.00;5.00;;
70740;Laerm;58330;51.888;11.052;2024-02-26T03:01:22;5.00;5.00;5.00;;
70740;Laerm;58330;51.888;11.052;2024-02-26T03:03:48;5.00;5.00;5.00;;
70740;Laerm;58330;51.888;11.052;2024-02-26T03:06:16;5.00;5.00;5.00;;
70740;Laerm;58330;51.888;11.052;2024-02-26T03:08:42;5.00;5.00;5.00;;
70740;Laerm;58330;51.888;11.052;2024-02-26T03:11:12;5.00;5.00;5.00;;
70740;Laerm;58330;51.888;11.052;2024-02-26T03:13:41;5.00;5.00;5.00;;
70740;Laerm;58330;51.888;11.052;2024-02-26T03:16:08;5.00;5.00;5.00;;
70740;Laerm;58330;51.888;11.052;2024-02-26T03:18:34;5.00;5.00;5.00;;
70740;Laerm;58330;51.888;11.052;2024-02-26T03:21:01;5.00;5.00;5.00;;
70740;Laerm;58330;51.888;11.052;2024-02-26T03:23:28;5.00;5.00;5.00;;
70740;Laerm;58330;51.888;11.052;2024-02-26T03:25:55;5.00;5.00;5.00;;
70740;Laerm;58330;51.888;11.052;2024-02-26T03:28:22;5.00;5.00;5.00;;
70740;Laerm;58330;51.888;11.052;2024-02-26T03:30:50;5.00;5.00;5.00;;
70740;Laerm;58330;51.888;11.052;2024-02-26T03:33:19;5.00;5.00;5.00;;
70740;Laerm;58330;51.888;11.052;2024-02-26T03:35:45;5.00;5.00;5.00;;
70740;Laerm;58330;51.888;11.052;2024-02-26T03:38:12;5.00;5.00;5.00;;
70740;Laerm;58330;51.888;11.052;2024-02-26T03:40:39;5.00;5.00;5.00;;
70740;Laerm;58330;51.888;11.052;2024-02-26T03:43:05;5.00;5.00;5.00;;
70740;Laerm;58330;51.888;11.052;2024-02-26T03:45:32;5.00;5.00;5.00;;
70740;Laerm;58330;51.888;11.052;2024-02-26T03:48:00;5.00;5.00;5.00;;
70740;Laerm;58330;51.888;11.052;2024-02-26T03:50:27;5.00;5.00;5.00;;
70740;Laerm;58330;51.888;11.052;2024-02-26T03:52:53;5.00;5.00;5.00;;
70740;Laerm;58330;51.888;11.052;2024-02-26T03:55:20;5.00;5.00;5.00;;
70740;Laerm;58330;51.888;11.052;2024-02-26T03:57:50;5.00;5.00;5.00;;
70740;Laerm;58330;51.888;11.052;2024-02-26T04:00:16;5.00;5.00;5.00;;
70740;Laerm;58330;51.888;11.052;2024-02-26T04:02:43;5.00;5.00;5.00;;
70740;Laerm;58330;51.888;11.052;2024-02-26T04:05:11;5.00;5.00;5.00;;
70740;Laerm;58330;51.888;11.052;2024-02-26T04:07:37;5.00;5.00;5.00;;
70740;Laerm;58330;51.888;11.052;2024-02-26T04:10:07;5.00;5.00;5.00;;
70740;Laerm;58330;51.888;11.052;2024-02-26T04:12:34;5.00;5.00;5.00;;
70740;Laerm;58330;51.888;11.052;2024-02-26T04:15:01;5.00;5.00;5.00;;
70740;Laerm;58330;51.888;11.052;2024-02-26T04:17:27;5.00;5.00;5.00;;
70740;Laerm;58330;51.888;11.052;2024-02-26T04:19:53;5.00;5.00;5.00;;
70740;Laerm;58330;51.888;11.052;2024-02-26T04:22:22;5.00;5.00;5.00;;
70740;Laerm;58330;51.888;11.052;2024-02-26T04:24:49;5.00;5.00;5.00;;
70740;Laerm;58330;51.888;11.052;2024-02-26T04:27:16;5.00;5.00;5.00;;
70740;Laerm;58330;51.888;11.052;2024-02-26T04:29:42;5.00;5.00;5.00;;
70740;Laerm;58330;51.888;11.052;2024-02-26T04:32:09;5.00;5.00;5.00;;
70740;Laerm;58330;51.888;11.052;2024-02-26T04:34:35;5.00;5.00;5.00;;
70740;Laerm;58330;51.888;11.052;2024-02-26T04:37:02;5.00;5.00;5.00;;
70740;Laerm;58330;51.888;11.052;2024-02-26T04:39:30;5.00;5.00;5.00;;
70740;Laerm;58330;51.888;11.052;2024-02-26T04:41:56;5.00;5.00;5.00;;
70740;Laerm;58330;51.888;11.052;2024-02-26T04:44:23;5.00;5.00;5.00;;
70740;Laerm;58330;51.888;11.052;2024-02-26T04:46:50;5.00;5.00;5.00;;
70740;Laerm;58330;51.888;11.052;2024-02-26T04:49:16;5.00;5.00;5.00;;
70740;Laerm;58330;51.888;11.052;2024-02-26T04:51:42;5.00;5.00;5.00;;
70740;Laerm;58330;51.888;11.052;2024-02-26T04:54:09;5.00;5.00;5.00;;
70740;Laerm;58330;51.888;11.052;2024-02-26T04:56:37;5.00;5.00;5.00;;
70740;Laerm;58330;51.888;11.052;2024-02-26T04:59:03;5.00;5.00;5.00;;
70740;Laerm;58330;51.888;11.052;2024-02-26T05:01:30;5.00;5.00;5.00;;
70740;Laerm;58330;51.888;11.052;2024-02-26T05:03:56;5.00;5.00;5.00;;
70740;Laerm;58330;51.888;11.052;2024-02-26T05:06:23;5.00;5.00;5.00;;
70740;Laerm;58330;51.888;11.052;2024-02-26T05:08:49;5.00;5.00;5.00;;
70740;Laerm;58330;51.888;11.052;2024-02-26T05:11:16;5.00;5.00;5.00;;
70740;Laerm;58330;51.888;11.052;2024-02-26T05:13:44;5.00;5.00;5.00;;
70740;Laerm;58330;51.888;11.052;2024-02-26T05:16:11;5.00;5.00;5.00;;
70740;Laerm;58330;51.888;11.052;2024-02-26T05:18:38;5.00;5.00;5.00;;
70740;Laerm;58330;51.888;11.052;2024-02-26T05:21:04;5.00;5.00;5.00;;
70740;Laerm;58330;51.888;11.052;2024-02-26T05:23:30;5.00;5.00;5.00;;
70740;Laerm;58330;51.888;11.052;2024-02-26T05:25:57;5.00;5.00;5.00;;
70740;Laerm;58330;51.888;11.052;2024-02-26T05:28:23;5.00;5.00;5.00;;
70740;Laerm;58330;51.888;11.052;2024-02-26T05:30:51;5.00;5.00;5.00;;
70740;Laerm;58330;51.888;11.052;2024-02-26T05:33:18;5.00;5.00;5.00;;
70740;Laerm;58330;51.888;11.052;2024-02-26T05:35:44;5.00;5.00;5.00;;
70740;Laerm;58330;51.888;11.052;2024-02-26T05:38:10;5.00;5.00;5.00;;
70740;Laerm;58330;51.888;11.052;2024-02-26T05:40:37;5.00;5.00;5.00;;
70740;Laerm;58330;51.888;11.052;2024-02-26T05:43:03;5.00;5.00;5.00;;
70740;Laerm;58330;51.888;11.052;2024-02-26T05:45:30;5.00;5.00;5.00;;
70740;Laerm;58330;51.888;11.052;2024-02-26T05:47:58;5.00;5.00;5.00;;
70740;Laerm;58330;51.888;11.052;2024-02-26T05:50:24;5.00;5.00;5.00;;
70740;Laerm;58330;51.888;11.052;2024-02-26T05:52:50;5.00;5.00;5.00;;
70740;Laerm;58330;51.888;11.052;2024-02-26T05:55:17;5.00;5.00;5.00;;
70740;Laerm;58330;51.888;11.052;2024-02-26T05:57:44;5.00;5.00;5.00;;
70740;Laerm;58330;51.888;11.052;2024-02-26T06:00:10;5.00;5.00;5.00;;
70740;Laerm;58330;51.888;11.052;2024-02-26T06:02:38;5.00;5.00;5.00;;
70740;Laerm;58330;51.888;11.052;2024-02-26T06:05:06;5.00;5.00;5.00;;
70740;Laerm;58330;51.888;11.052;2024-02-26T06:07:33;5.00;5.00;5.00;;
70740;Laerm;58330;51.888;11.052;2024-02-26T06:10:00;5.00;5.00;5.00;;
70740;Laerm;58330;51.888;11.052;2024-02-26T06:12:27;5.00;5.00;5.00;;
70740;Laerm;58330;51.888;11.052;2024-02-26T06:14:55;5.00;5.00;5.00;;
70740;Laerm;58330;51.888;11.052;2024-02-26T06:17:22;5.00;5.00;5.00;;
70740;Laerm;58330;51.888;11.052;2024-02-26T06:19:49;5.00;5.00;5.00;;
70740;Laerm;58330;51.888;11.052;2024-02-26T06:22:16;5.00;5.00;5.00;;
70740;Laerm;58330;51.888;11.052;2024-02-26T06:24:43;5.00;5.00;5.00;;
70740;Laerm;58330;51.888;11.052;2024-02-26T06:27:09;5.00;5.00;5.00;;
70740;Laerm;58330;51.888;11.052;2024-02-26T06:29:36;5.00;5.00;5.00;;
70740;Laerm;58330;51.888;11.052;2024-02-26T06:32:05;5.00;5.00;5.00;;
70740;Laerm;58330;51.888;11.052;2024-02-26T06:34:31;5.00;5.00;5.00;;
70740;Laerm;58330;51.888;11.052;2024-02-26T06:37:00;5.00;5.00;5.00;;
70740;Laerm;58330;51.888;11.052;2024-02-26T06:39:30;5.00;5.00;5.00;;
70740;Laerm;58330;51.888;11.052;2024-02-26T06:41:56;5.00;5.00;5.00;;
70740;Laerm;58330;51.888;11.052;2024-02-26T06:44:25;5.00;5.00;5.00;;
70740;Laerm;58330;51.888;11.052;2024-02-26T06:46:56;5.00;5.00;5.00;;
70740;Laerm;58330;51.888;11.052;2024-02-26T06:49:25;5.00;5.00;5.00;;
70740;Laerm;58330;51.888;11.052;2024-02-26T06:51:52;5.00;5.00;5.00;;
70740;Laerm;58330;51.888;11.052;2024-02-26T06:54:19;5.00;5.00;5.00;;
70740;Laerm;58330;51.888;11.052;2024-02-26T06:56:46;5.00;5.00;5.00;;
70740;Laerm;58330;51.888;11.052;2024-02-26T06:59:13;5.00;5.00;5.00;;
70740;Laerm;58330;51.888;11.052;2024-02-26T07:01:39;5.00;5.00;5.00;;
70740;Laerm;58330;51.888;11.052;2024-02-26T07:04:06;5.00;5.00;5.00;;
70740;Laerm;58330;51.888;11.052;2024-02-26T07:06:33;5.00;5.00;5.00;;
70740;Laerm;58330;51.888;11.052;2024-02-26T07:08:59;5.00;5.00;5.00;;
70740;Laerm;58330;51.888;11.052;2024-02-26T07:11:25;5.00;5.00;5.00;;
70740;Laerm;58330;51.888;11.052;2024-02-26T07:13:55;5.00;5.00;5.00;;
70740;Laerm;58330;51.888;11.052;2024-02-26T07:16:22;5.00;5.00;5.00;;
70740;Laerm;58330;51.888;11.052;2024-02-26T07:18:48;5.00;5.00;5.00;;
70740;Laerm;58330;51.888;11.052;2024-02-26T07:21:15;5.00;5.00;5.00;;
70740;Laerm;58330;51.888;11.052;2024-02-26T07:23:41;5.00;5.00;5.00;;
70740;Laerm;58330;51.888;11.052;2024-02-26T07:26:08;5.00;5.00;5.00;;
70740;Laerm;58330;51.888;11.052;2024-02-26T07:28:36;5.00;5.00;5.00;;
70740;Laerm;58330;51.888;11.052;2024-02-26T07:31:04;5.00;5.00;5.00;;
70740;Laerm;58330;51.888;11.052;2024-02-26T07:33:31;5.00;5.00;5.00;;
70740;Laerm;58330;51.888;11.052;2024-02-26T07:35:57;5.00;5.00;5.00;;
70740;Laerm;58330;51.888;11.052;2024-02-26T07:38:24;5.00;5.00;5.00;;
70740;Laerm;58330;51.888;11.052;2024-02-26T07:40:51;5.00;5.00;5.00;;
70740;Laerm;58330;51.888;11.052;2024-02-26T07:43:17;5.00;5.00;5.00;;
70740;Laerm;58330;51.888;11.052;2024-02-26T07:45:44;5.00;5.00;5.00;;
70740;Laerm;58330;51.888;11.052;2024-02-26T07:48:12;5.00;5.00;5.00;;
70740;Laerm;58330;51.888;11.052;2024-02-26T07:50:39;5.00;5.00;5.00;;
70740;Laerm;58330;51.888;11.052;2024-02-26T07:53:06;5.00;5.00;5.00;;
70740;Laerm;58330;51.888;11.052;2024-02-26T07:55:33;5.00;5.00;5.00;;
70740;Laerm;58330;51.888;11.052;2024-02-26T07:57:59;5.00;5.00;5.00;;
70740;Laerm;58330;51.888;11.052;2024-02-26T08:00:26;5.00;5.00;5.00;;
70740;Laerm;58330;51.888;11.052;2024-02-26T08:02:52;5.00;5.00;5.00;;
70740;Laerm;58330;51.888;11.052;2024-02-26T08:05:20;5.00;5.00;5.00;;
70740;Laerm;58330;51.888;11.052;2024-02-26T08:07:47;5.00;5.00;5.00;;
70740;Laerm;58330;51.888;11.052;2024-02-26T08:10:14;5.00;5.00;5.00;;
70740;Laerm;58330;51.888;11.052;2024-02-26T08:12:41;5.00;5.00;5.00;;
70740;Laerm;58330;51.888;11.052;2024-02-26T08:15:08;5.00;5.00;5.00;;
70740;Laerm;58330;51.888;11.052;2024-02-26T08:17:36;5.00;5.00;5.00;;
70740;Laerm;58330;51.888;11.052;2024-02-26T08:20:06;5.00;5.00;5.00;;
70740;Laerm;58330;51.888;11.052;2024-02-26T08:22:35;5.00;5.00;5.00;;
70740;Laerm;58330;51.888;11.052;2024-02-26T08:25:02;5.00;5.00;5.00;;
70740;Laerm;58330;51.888;11.052;2024-02-26T08:27:32;5.00;5.00;5.00;;
70740;Laerm;58330;51.888;11.052;2024-02-26T08:29:58;5.00;5.00;5.00;;
70740;Laerm;58330;51.888;11.052;2024-02-26T08:32:25;5.00;5.00;5.00;;
70740;Laerm;58330;51.888;11.052;2024-02-26T08:34:52;5.00;5.00;5.00;;
70740;Laerm;58330;51.888;11.052;2024-02-26T08:37:18;5.00;5.00;5.00;;
70740;Laerm;58330;51.888;11.052;2024-02-26T08:39:46;5.00;5.00;5.00;;
70740;Laerm;58330;51.888;11.052;2024-02-26T08:42:13;5.00;5.00;5.00;;
70740;Laerm;58330;51.888;11.052;2024-02-26T08:44:42;5.00;5.00;5.00;;
70740;Laerm;58330;51.888;11.052;2024-02-26T08:47:09;5.00;5.00;5.00;;
70740;Laerm;58330;51.888;11.052;2024-02-26T08:49:35;5.00;5.00;5.00;;
70740;Laerm;58330;51.888;11.052;2024-02-26T08:52:02;5.00;5.00;5.00;;
70740;Laerm;58330;51.888;11.052;2024-02-26T08:54:30;5.00;5.00;5.00;;
70740;Laerm;58330;51.888;11.052;2024-02-26T08:57:00;5.00;5.00;5.00;;
70740;Laerm;58330;51.888;11.052;2024-02-26T08:59:30;5.00;5.00;5.00;;
70740;Laerm;58330;51.888;11.052;2024-02-26T09:01:57;5.00;5.00;5.00;;
70740;Laerm;58330;51.888;11.052;2024-02-26T09:04:24;5.00;5.00;5.00;;
70740;Laerm;58330;51.888;11.052;2024-02-26T09:06:51;5.00;5.00;5.00;;
70740;Laerm;58330;51.888;11.052;2024-02-26T09:09:19;5.00;5.00;5.00;;
70740;Laerm;58330;51.888;11.052;2024-02-26T09:11:45;5.00;5.00;5.00;;
70740;Laerm;58330;51.888;11.052;2024-02-26T09:14:13;5.00;5.00;5.00;;
70740;Laerm;58330;51.888;11.052;2024-02-26T09:16:40;5.00;5.00;5.00;;
70740;Laerm;58330;51.888;11.052;2024-02-26T09:19:06;5.00;5.00;5.00;;
70740;Laerm;58330;51.888;11.052;2024-02-26T09:21:33;5.00;5.00;5.00;;
70740;Laerm;58330;51.888;11.052;2024-02-26T09:24:02;5.00;5.00;5.00;;
70740;Laerm;58330;51.888;11.052;2024-02-26T09:26:29;5.00;5.00;5.00;;
70740;Laerm;58330;51.888;11.052;2024-02-26T09:28:55;5.00;5.00;5.00;;
70740;Laerm;58330;51.888;11.052;2024-02-26T09:31:24;5.00;5.00;5.00;;
70740;Laerm;58330;51.888;11.052;2024-02-26T09:33:50;5.00;5.00;5.00;;
70740;Laerm;58330;51.888;11.052;2024-02-26T09:36:17;5.00;5.00;5.00;;
70740;Laerm;58330;51.888;11.052;2024-02-26T09:38:43;5.00;5.00;5.00;;
70740;Laerm;58330;51.888;11.052;2024-02-26T09:41:11;5.00;5.00;5.00;;
70740;Laerm;58330;51.888;11.052;2024-02-26T09:43:40;5.00;5.00;5.00;;
70740;Laerm;58330;51.888;11.052;2024-02-26T09:46:10;5.00;5.00;5.00;;
70740;Laerm;58330;51.888;11.052;2024-02-26T09:48:38;5.00;5.00;5.00;;
70740;Laerm;58330;51.888;11.052;2024-02-26T09:51:05;5.00;5.00;5.00;;
70740;Laerm;58330;51.888;11.052;2024-02-26T09:53:32;5.00;5.00;5.00;;
70740;Laerm;58330;51.888;11.052;2024-02-26T09:56:01;5.00;5.00;5.00;;
70740;Laerm;58330;51.888;11.052;2024-02-26T09:58:28;5.00;5.00;5.00;;
70740;Laerm;58330;51.888;11.052;2024-02-26T10:00:55;5.00;5.00;5.00;;
70740;Laerm;58330;51.888;11.052;2024-02-26T10:03:24;5.00;5.00;5.00;;
70740;Laerm;58330;51.888;11.052;2024-02-26T10:05:53;5.00;5.00;5.00;;
70740;Laerm;58330;51.888;11.052;2024-02-26T10:08:20;5.00;5.00;5.00;;
70740;Laerm;58330;51.888;11.052;2024-02-26T10:10:48;5.00;5.00;5.00;;
70740;Laerm;58330;51.888;11.052;2024-02-26T10:13:15;5.00;5.00;5.00;;
70740;Laerm;58330;51.888;11.052;2024-02-26T10:15:41;5.00;5.00;5.00;;
70740;Laerm;58330;51.888;11.052;2024-02-26T10:18:08;5.00;5.00;5.00;;
70740;Laerm;58330;51.888;11.052;2024-02-26T10:20:34;5.00;5.00;5.00;;
70740;Laerm;58330;51.888;11.052;2024-02-26T10:23:04;5.00;5.00;5.00;;
70740;Laerm;58330;51.888;11.052;2024-02-26T10:25:30;5.00;5.00;5.00;;
70740;Laerm;58330;51.888;11.052;2024-02-26T10:27:59;5.00;5.00;5.00;;
70740;Laerm;58330;51.888;11.052;2024-02-26T10:30:27;5.00;5.00;5.00;;
70740;Laerm;58330;51.888;11.052;2024-02-26T10:32:54;5.00;5.00;5.00;;
70740;Laerm;58330;51.888;11.052;2024-02-26T10:35:20;5.00;5.00;5.00;;
70740;Laerm;58330;51.888;11.052;2024-02-26T10:37:47;5.00;5.00;5.00;;
70740;Laerm;58330;51.888;11.052;2024-02-26T10:40:15;5.00;5.00;5.00;;
70740;Laerm;58330;51.888;11.052;2024-02-26T10:42:42;5.00;5.00;5.00;;
70740;Laerm;58330;51.888;11.052;2024-02-26T10:45:10;5.00;5.00;5.00;;
70740;Laerm;58330;51.888;11.052;2024-02-26T10:47:36;5.00;5.00;5.00;;
70740;Laerm;58330;51.888;11.052;2024-02-26T10:50:04;5.00;5.00;5.00;;
70740;Laerm;58330;51.888;11.052;2024-02-26T10:52:31;5.00;5.00;5.00;;
70740;Laerm;58330;51.888;11.052;2024-02-26T10:54:59;5.00;5.00;5.00;;
70740;Laerm;58330;51.888;11.052;2024-02-26T10:57:31;73.16;-324.33;96.23;;
70740;Laerm;58330;51.888;11.052;2024-02-26T10:59:59;76.56;-334.33;99.23;;
70740;Laerm;58330;51.888;11.052;2024-02-26T11:02:26;62.98;-267.14;96.23;;
70740;Laerm;58330;51.888;11.052;2024-02-26T11:04:53;71.42;-327.34;99.20;;
70740;Laerm;58330;51.888;11.052;2024-02-26T11:07:20;76.60;-328.31;96.23;;
70740;Laerm;58330;51.888;11.052;2024-02-26T11:09:48;5.00;5.00;5.00;;
70740;Laerm;58330;51.888;11.052;2024-02-26T11:12:17;5.00;5.00;5.00;;
70740;Laerm;58330;51.888;11.052;2024-02-26T11:14:46;5.00;5.00;5.00;;
70740;Laerm;58330;51.888;11.052;2024-02-26T11:17:15;5.00;5.00;5.00;;
70740;Laerm;58330;51.888;11.052;2024-02-26T11:19:43;5.00;5.00;5.00;;
70740;Laerm;58330;51.888;11.052;2024-02-26T11:22:11;5.00;5.00;5.00;;
70740;Laerm;58330;51.888;11.052;2024-02-26T11:24:37;5.00;5.00;5.00;;
70740;Laerm;58330;51.888;11.052;2024-02-26T11:27:06;5.00;5.00;5.00;;
70740;Laerm;58330;51.888;11.052;2024-02-26T11:29:34;5.00;5.00;5.00;;
70740;Laerm;58330;51.888;11.052;2024-02-26T11:32:05;5.00;5.00;5.00;;
70740;Laerm;58330;51.888;11.052;2024-02-26T11:34:32;5.00;5.00;5.00;;
70740;Laerm;58330;51.888;11.052;2024-02-26T11:37:08;5.00;5.00;5.00;;
70740;Laerm;58330;51.888;11.052;2024-02-26T11:39:35;5.00;5.00;5.00;;
70740;Laerm;58330;51.888;11.052;2024-02-26T11:42:05;5.00;5.00;5.00;;
70740;Laerm;58330;51.888;11.052;2024-02-26T11:44:31;5.00;5.00;5.00;;
70740;Laerm;58330;51.888;11.052;2024-02-26T11:46:57;5.00;5.00;5.00;;
70740;Laerm;58330;51.888;11.052;2024-02-26T11:49:30;5.00;5.00;5.00;;
70740;Laerm;58330;51.888;11.052;2024-02-26T11:51:58;5.00;5.00;5.00;;
70740;Laerm;58330;51.888;11.052;2024-02-26T11:54:38;5.00;5.00;5.00;;
70740;Laerm;58330;51.888;11.052;2024-02-26T11:57:04;5.00;5.00;5.00;;
70740;Laerm;58330;51.888;11.052;2024-02-26T11:59:45;5.00;5.00;5.00;;
70740;Laerm;58330;51.888;11.052;2024-02-26T12:02:12;5.00;5.00;5.00;;
70740;Laerm;58330;51.888;11.052;2024-02-26T12:05:00;5.00;5.00;5.00;;
70740;Laerm;58330;51.888;11.052;2024-02-26T12:07:28;5.00;5.00;5.00;;
70740;Laerm;58330;51.888;11.052;2024-02-26T12:12:37;5.00;5.00;5.00;;
70740;Laerm;58330;51.888;11.052;2024-02-26T12:15:04;5.00;5.00;5.00;;
70740;Laerm;58330;51.888;11.052;2024-02-26T12:17:31;5.00;5.00;5.00;;
70740;Laerm;58330;51.888;11.052;2024-02-26T12:20:09;5.00;5.00;5.00;;
70740;Laerm;58330;51.888;11.052;2024-02-26T12:22:36;5.00;5.00;5.00;;
70740;Laerm;58330;51.888;11.052;2024-02-26T12:25:04;5.00;5.00;5.00;;
70740;Laerm;58330;51.888;11.052;2024-02-26T12:27:32;5.00;5.00;5.00;;
70740;Laerm;58330;51.888;11.052;2024-02-26T12:29:59;5.00;5.00;5.00;;
70740;Laerm;58330;51.888;11.052;2024-02-26T12:32:25;5.00;5.00;5.00;;
70740;Laerm;58330;51.888;11.052;2024-02-26T12:34:52;5.00;5.00;5.00;;
70740;Laerm;58330;51.888;11.052;2024-02-26T12:37:20;5.00;5.00;5.00;;
70740;Laerm;58330;51.888;11.052;2024-02-26T12:39:47;59.94;5.00;96.21;;
70740;Laerm;58330;51.888;11.052;2024-02-26T12:42:14;30.27;28.69;31.50;;
70740;Laerm;58330;51.888;11.052;2024-02-26T12:44:40;30.48;29.21;32.02;;
70740;Laerm;58330;51.888;11.052;2024-02-26T12:47:06;30.42;29.11;31.70;;
70740;Laerm;58330;51.888;11.052;2024-02-26T12:49:33;30.03;28.74;31.39;;
70740;Laerm;58330;51.888;11.052;2024-02-26T12:52:00;30.36;28.88;31.67;;
70740;Laerm;58330;51.888;11.052;2024-02-26T12:54:28;29.94;28.63;31.23;;
70740;Laerm;58330;51.888;11.052;2024-02-26T12:56:56;30.01;28.62;32.09;;
70740;Laerm;58330;51.888;11.052;2024-02-26T12:59:23;29.99;28.68;31.18;;
70740;Laerm;58330;51.888;11.052;2024-02-26T13:01:49;29.98;28.50;33.47;;
70740;Laerm;58330;51.888;11.052;2024-02-26T13:04:16;30.48;28.92;49.57;;
70740;Laerm;58330;51.888;11.052;2024-02-26T13:06:43;78.35;-323.91;99.19;;
70740;Laerm;58330;51.888;11.052;2024-02-26T13:09:12;60.28;49.56;68.65;;
70740;Laerm;58330;51.888;11.052;2024-02-26T13:11:40;61.43;53.54;63.44;;
70740;Laerm;58330;51.888;11.052;2024-02-26T13:14:07;60.82;51.83;63.45;;
70740;Laerm;58330;51.888;11.052;2024-02-26T13:16:34;79.06;-217.25;99.24;;
70740;Laerm;58330;51.888;11.052;2024-02-26T13:19:07;76.35;-325.88;99.24;;
70740;Laerm;58330;51.888;11.052;2024-02-26T13:21:34;73.93;-323.53;99.23;;
70740;Laerm;58330;51.888;11.052;2024-02-26T13:24:01;5.00;5.00;5.00;;
70740;Laerm;58330;51.888;11.052;2024-02-26T13:26:27;5.00;5.00;5.00;;
70740;Laerm;58330;51.888;11.052;2024-02-26T13:29:02;74.46;-323.53;96.23;;
70740;Laerm;58330;51.888;11.052;2024-02-26T13:31:29;74.67;-331.32;96.27;;
70740;Laerm;58330;51.888;11.052;2024-02-26T13:33:56;77.72;-328.31;96.64;;
70740;Laerm;58330;51.888;11.052;2024-02-26T13:36:22;67.77;-328.31;96.23;;
70740;Laerm;58330;51.888;11.052;2024-02-26T13:38:52;5.00;5.00;5.00;;
70740;Laerm;58330;51.888;11.052;2024-02-26T13:41:19;5.00;5.00;5.00;;
70740;Laerm;58330;51.888;11.052;2024-02-26T13:43:46;5.00;5.00;5.00;;
70740;Laerm;58330;51.888;11.052;2024-02-26T13:46:14;5.00;5.00;5.00;;
70740;Laerm;58330;51.888;11.052;2024-02-26T13:48:42;59.90;5.00;96.20;;
70740;Laerm;58330;51.888;11.052;2024-02-26T13:51:08;49.30;-80.35;64.29;;
70740;Laerm;58330;51.888;11.052;2024-02-26T13:53:35;48.34;-50.00;62.09;;
70740;Laerm;58330;51.888;11.052;2024-02-26T13:56:05;53.95;-57.66;68.88;;
70740;Laerm;58330;51.888;11.052;2024-02-26T13:58:32;57.92;-6.67;68.14;;
70740;Laerm;58330;51.888;11.052;2024-02-26T14:00:59;56.14;-55.66;68.50;;
70740;Laerm;58330;51.888;11.052;2024-02-26T14:03:30;45.03;-88.57;56.79;;